Time;durP1;ratioP1;P1;durP2;ratioP2;P2;SDS_P1;SDS_P2;PMS_P1;PMS_P2;Temp;Humidity;BMP_temperature;BMP_pressure;BME280_temperature;BME280_humidity;BME280_pressure;Samples;Min_cycle;Max_cycle;Signal;HPM_P1;HPM_P2
2023/04/27 00:00:10;;;;;;;7.65;5.60;;;3.80;99.90;;;;;;5053269;28;20059;-69
2023/04/27 00:02:37;;;;;;;7.15;5.10;;;3.80;99.90;;;;;;5052015;28;20107;-69
2023/04/27 00:05:04;;;;;;;7.68;5.22;;;4.30;99.90;;;;;;5053122;28;20056;-69
2023/04/27 00:07:30;;;;;;;10.65;5.65;;;3.70;99.90;;;;;;5052803;28;20048;-70
2023/04/27 00:09:56;;;;;;;6.18;5.57;;;4.10;99.90;;;;;;5053297;28;20067;-71
2023/04/27 00:12:22;;;;;;;6.72;5.40;;;3.80;99.90;;;;;;5053147;28;20470;-70
2023/04/27 00:14:48;;;;;;;11.00;5.18;;;3.80;99.90;;;;;;5052985;28;20116;-70
2023/04/27 00:17:14;;;;;;;8.02;5.20;;;4.00;99.90;;;;;;5053024;28;20535;-69
2023/04/27 00:19:40;;;;;;;8.52;4.70;;;4.50;99.90;;;;;;5051197;28;20071;-69
2023/04/27 00:22:07;;;;;;;9.13;5.18;;;4.50;99.90;;;;;;5052700;28;20057;-69
2023/04/27 00:24:33;;;;;;;7.70;5.35;;;4.10;99.90;;;;;;5052586;28;20052;-69
2023/04/27 00:26:58;;;;;;;5.88;5.13;;;4.10;99.90;;;;;;5052306;28;20049;-69
2023/04/27 00:29:24;;;;;;;9.35;5.30;;;4.20;99.90;;;;;;5052447;28;20041;-69
2023/04/27 00:31:50;;;;;;;5.65;4.72;;;5.10;99.90;;;;;;5052678;28;20456;-69
2023/04/27 00:34:15;;;;;;;8.40;5.22;;;4.40;99.90;;;;;;5052800;28;20506;-69
2023/04/27 00:36:41;;;;;;;6.68;5.13;;;4.50;99.90;;;;;;5052587;28;20091;-69
2023/04/27 00:39:07;;;;;;;6.10;5.20;;;4.50;99.90;;;;;;5052431;28;20063;-69
2023/04/27 00:41:37;;;;;;;6.32;5.20;;;4.70;99.90;;;;;;5052532;28;20151;-69
2023/04/27 00:44:02;;;;;;;8.13;5.30;;;4.60;99.90;;;;;;5051168;28;20056;-71
2023/04/27 00:46:28;;;;;;;8.82;5.35;;;4.60;99.90;;;;;;5052383;28;20048;-69
2023/04/27 00:48:55;;;;;;;7.20;5.20;;;4.70;99.90;;;;;;5052083;28;20040;-70
2023/04/27 00:51:21;;;;;;;9.73;6.63;;;4.70;99.90;;;;;;5052267;28;20045;-69
2023/04/27 00:53:50;;;;;;;8.90;5.85;;;4.80;99.90;;;;;;5051009;28;20128;-69
2023/04/27 00:56:16;;;;;;;8.52;5.30;;;4.80;99.90;;;;;;5052105;28;20045;-68
2023/04/27 00:58:42;;;;;;;5.82;5.30;;;4.80;99.90;;;;;;5052391;28;20484;-71
2023/04/27 01:01:09;;;;;;;10.23;5.90;;;4.90;99.90;;;;;;5052158;28;20040;-69
2023/04/27 01:03:35;;;;;;;7.80;5.00;;;5.00;99.90;;;;;;5084683;28;20080;-69
2023/04/27 01:06:00;;;;;;;7.05;5.38;;;5.00;99.90;;;;;;5051989;28;20037;-71
2023/04/27 01:08:28;;;;;;;7.35;5.55;;;5.00;99.90;;;;;;5052566;28;20503;-69
2023/04/27 01:10:54;;;;;;;6.57;5.00;;;5.10;99.90;;;;;;5052186;28;20037;-69
2023/04/27 01:13:21;;;;;;;7.35;5.55;;;5.10;99.90;;;;;;5052088;28;20092;-69
2023/04/27 01:15:47;;;;;;;8.00;6.25;;;5.20;99.90;;;;;;5051782;28;20449;-69
2023/04/27 01:18:13;;;;;;;7.35;5.20;;;5.20;99.90;;;;;;5053000;28;20039;-69
2023/04/27 01:20:39;;;;;;;6.10;5.55;;;5.30;99.90;;;;;;5056095;28;20537;-69
2023/04/27 01:23:05;;;;;;;7.43;5.70;;;5.30;99.90;;;;;;5055907;28;20520;-71
2023/04/27 01:25:30;;;;;;;10.00;6.03;;;5.20;99.90;;;;;;5055122;28;20053;-69
2023/04/27 01:27:56;;;;;;;6.30;5.28;;;5.20;99.90;;;;;;5055896;28;20435;-71
2023/04/27 01:30:22;;;;;;;9.05;5.50;;;5.10;99.90;;;;;;5089026;28;20041;-69
2023/04/27 01:32:48;;;;;;;8.52;5.65;;;5.10;99.90;;;;;;5056111;28;20412;-69
2023/04/27 01:35:15;;;;;;;10.32;5.60;;;5.10;99.90;;;;;;5088441;28;20131;-69
2023/04/27 01:37:40;;;;;;;5.82;5.10;;;5.00;99.90;;;;;;5056303;28;20124;-69
2023/04/27 01:40:07;;;;;;;9.75;5.88;;;5.00;99.90;;;;;;5055775;28;20559;-71
2023/04/27 01:42:33;;;;;;;8.35;6.05;;;5.00;99.90;;;;;;5055586;28;20459;-69
2023/04/27 01:44:59;;;;;;;6.03;5.07;;;4.90;99.90;;;;;;5055207;28;20060;-71
2023/04/27 01:47:26;;;;;;;5.28;4.78;;;4.90;99.90;;;;;;5055522;28;20052;-69
2023/04/27 01:49:52;;;;;;;5.63;4.97;;;5.30;99.90;;;;;;5056038;28;20048;-69
2023/04/27 01:52:17;;;;;;;5.38;4.85;;;4.70;99.90;;;;;;5054226;28;20380;-69
2023/04/27 01:54:43;;;;;;;6.25;5.65;;;4.60;99.90;;;;;;5056052;28;20400;-70
2023/04/27 01:57:09;;;;;;;6.93;5.68;;;4.50;99.90;;;;;;5055756;28;20384;-70
2023/04/27 01:59:35;;;;;;;5.75;5.18;;;4.40;99.90;;;;;;5037634;28;20195;-71
2023/04/27 02:02:00;;;;;;;6.75;5.65;;;4.30;99.90;;;;;;5054794;28;20053;-71
2023/04/27 02:04:26;;;;;;;6.93;5.97;;;4.10;99.90;;;;;;5021505;28;20049;-71
2023/04/27 02:06:52;;;;;;;7.95;5.65;;;4.10;99.90;;;;;;5054779;28;20045;-71
2023/04/27 02:09:18;;;;;;;8.48;6.13;;;4.10;99.90;;;;;;5055490;28;20048;-71
2023/04/27 02:11:44;;;;;;;6.72;5.43;;;4.00;99.90;;;;;;5055347;28;20099;-71
2023/04/27 02:14:09;;;;;;;6.90;5.18;;;4.60;99.90;;;;;;5055077;28;20132;-71
2023/04/27 02:16:35;;;;;;;8.75;5.78;;;4.20;99.90;;;;;;5055010;28;20048;-69
2023/04/27 02:19:01;;;;;;;8.35;5.68;;;3.90;99.90;;;;;;5053786;28;20048;-69
2023/04/27 02:21:27;;;;;;;11.73;5.90;;;3.90;99.90;;;;;;5055468;28;20449;-70
2023/04/27 02:23:53;;;;;;;6.93;6.03;;;3.80;99.90;;;;;;5054892;28;20048;-69
2023/04/27 02:26:21;;;;;;;12.05;6.82;;;3.80;99.90;;;;;;5054906;28;20437;-69
2023/04/27 02:28:46;;;;;;;8.48;5.70;;;3.80;99.90;;;;;;5054130;28;20041;-69
2023/04/27 02:31:13;;;;;;;6.00;5.35;;;3.70;99.90;;;;;;5054599;28;20110;-70
2023/04/27 02:33:40;;;;;;;6.35;5.00;;;3.70;99.90;;;;;;5055043;28;20060;-69
2023/04/27 02:36:09;;;;;;;6.38;4.90;;;3.60;99.90;;;;;;5054149;28;20128;-69
2023/04/27 02:38:35;;;;;;;7.45;6.30;;;3.60;99.90;;;;;;5054872;28;20120;-69
2023/04/27 02:41:00;;;;;;;7.30;5.30;;;3.60;99.90;;;;;;5054677;28;20142;-69
2023/04/27 02:43:26;;;;;;;7.57;6.65;;;3.60;99.90;;;;;;5036727;28;20195;-69
2023/04/27 02:45:52;;;;;;;8.05;6.55;;;3.30;99.90;;;;;;5053724;28;20534;-69
2023/04/27 02:48:17;;;;;;;7.47;5.97;;;3.20;99.90;;;;;;5053179;28;20040;-69
2023/04/27 02:50:44;;;;;;;7.35;5.57;;;3.00;99.90;;;;;;5054253;28;20533;-71
2023/04/27 02:53:10;;;;;;;6.68;5.47;;;3.00;99.90;;;;;;5053359;28;20041;-69
2023/04/27 02:55:36;;;;;;;7.75;5.55;;;3.10;99.90;;;;;;5054244;28;20045;-69
2023/04/27 02:58:02;;;;;;;7.70;5.53;;;3.10;99.90;;;;;;5054178;28;20072;-71
2023/04/27 03:00:28;;;;;;;6.65;4.80;;;3.10;99.90;;;;;;5054173;28;20500;-69
2023/04/27 03:02:55;;;;;;;6.55;4.97;;;3.20;99.90;;;;;;5054101;28;20049;-70
2023/04/27 03:05:21;;;;;;;8.00;5.78;;;3.10;99.90;;;;;;5053044;28;20106;-69
2023/04/27 03:07:46;;;;;;;7.47;5.75;;;3.20;99.90;;;;;;5052800;28;20040;-69
2023/04/27 03:10:12;;;;;;;7.53;5.35;;;3.20;99.90;;;;;;5054064;28;20098;-71
2023/04/27 03:12:38;;;;;;;8.43;7.03;;;3.10;99.90;;;;;;5053994;28;20067;-69
2023/04/27 03:15:04;;;;;;;8.05;6.40;;;3.10;99.90;;;;;;5054305;28;20053;-69
2023/04/27 03:17:30;;;;;;;8.10;6.03;;;2.90;99.90;;;;;;5054367;28;20131;-69
2023/04/27 03:19:56;;;;;;;7.35;5.60;;;3.30;99.90;;;;;;5053970;28;20065;-71
2023/04/27 03:22:21;;;;;;;9.98;6.00;;;2.70;99.90;;;;;;5053701;28;20071;-69
2023/04/27 03:24:47;;;;;;;7.40;5.53;;;2.60;99.90;;;;;;5053896;28;20060;-69
2023/04/27 03:27:13;;;;;;;8.30;6.97;;;3.70;99.90;;;;;;5052435;28;20516;-69
2023/04/27 03:29:38;;;;;;;7.00;5.85;;;3.10;99.90;;;;;;5053476;28;20047;-71
2023/04/27 03:32:05;;;;;;;9.60;6.47;;;3.30;99.90;;;;;;5052436;28;20132;-71
2023/04/27 03:34:30;;;;;;;8.20;6.32;;;2.60;99.90;;;;;;5053593;28;20131;-69
2023/04/27 03:36:56;;;;;;;7.68;6.85;;;2.70;99.90;;;;;;5053318;28;20110;-69
2023/04/27 03:39:22;;;;;;;8.43;6.00;;;2.70;99.90;;;;;;5052241;28;20095;-69
2023/04/27 03:41:48;;;;;;;9.68;6.32;;;3.50;99.90;;;;;;5052991;28;20127;-69
2023/04/27 03:44:13;;;;;;;8.23;6.53;;;2.50;99.90;;;;;;5053322;28;20040;-69
2023/04/27 03:46:39;;;;;;;12.88;6.25;;;2.40;99.90;;;;;;5053568;28;20128;-69
2023/04/27 03:49:05;;;;;;;10.35;7.22;;;2.40;99.90;;;;;;5053365;28;20454;-71
2023/04/27 03:51:32;;;;;;;10.20;6.90;;;2.40;99.90;;;;;;5053147;28;20047;-69
2023/04/27 03:53:58;;;;;;;8.88;7.22;;;3.70;99.90;;;;;;5053303;28;20049;-71
2023/04/27 03:56:23;;;;;;;10.00;7.38;;;3.30;99.90;;;;;;5053453;28;20118;-69
2023/04/27 03:58:49;;;;;;;11.70;7.60;;;2.40;99.90;;;;;;5053161;28;20474;-69
2023/04/27 04:01:15;;;;;;;10.65;7.60;;;2.50;99.90;;;;;;5053508;28;20048;-69
2023/04/27 04:03:41;;;;;;;8.90;7.00;;;2.40;99.90;;;;;;5053021;28;20199;-71
2023/04/27 04:06:07;;;;;;;10.05;7.80;;;2.30;99.90;;;;;;5052354;28;20052;-71
2023/04/27 04:08:33;;;;;;;8.93;7.28;;;2.20;99.90;;;;;;5052855;28;20075;-69
2023/04/27 04:10:59;;;;;;;8.80;6.88;;;2.20;99.90;;;;;;5052872;28;20052;-69
2023/04/27 04:13:25;;;;;;;10.23;7.82;;;2.20;99.90;;;;;;5053361;28;20077;-68
2023/04/27 04:16:03;;;;;;;9.73;6.32;;;2.20;99.90;;;;;;5053250;28;20053;-69
2023/04/27 04:18:29;;;;;;;10.38;7.65;;;2.30;99.90;;;;;;5052356;28;20472;-69
2023/04/27 04:20:55;;;;;;;11.18;7.53;;;2.30;99.90;;;;;;5053146;28;20144;-70
2023/04/27 04:23:20;;;;;;;11.85;7.47;;;2.40;99.90;;;;;;5053149;28;20084;-70
2023/04/27 04:25:49;;;;;;;10.48;7.45;;;0.80;99.90;;;;;;5052835;28;20534;-71
2023/04/27 04:28:15;;;;;;;10.18;8.18;;;1.90;99.90;;;;;;5052672;28;20131;-70
2023/04/27 04:30:42;;;;;;;12.68;7.50;;;1.90;99.90;;;;;;5052616;28;20504;-71
2023/04/27 04:33:08;;;;;;;17.25;8.13;;;1.90;99.90;;;;;;5035438;28;20056;-71
2023/04/27 04:35:37;;;;;;;9.68;7.40;;;1.90;99.90;;;;;;5052987;28;20056;-71
2023/04/27 04:38:02;;;;;;;9.13;7.57;;;1.90;99.90;;;;;;5034922;28;20053;-71
2023/04/27 04:40:28;;;;;;;9.13;7.38;;;3.00;99.90;;;;;;5052719;28;20052;-71
2023/04/27 04:42:54;;;;;;;7.45;6.70;;;1.90;99.90;;;;;;5051634;28;20132;-71
2023/04/27 04:45:20;;;;;;;8.98;7.18;;;1.90;99.90;;;;;;5052859;28;20044;-71
2023/04/27 04:47:46;;;;;;;9.18;6.82;;;2.00;99.90;;;;;;5052219;28;20044;-71
2023/04/27 04:50:12;;;;;;;13.93;7.55;;;2.60;99.90;;;;;;5085277;28;20128;-70
2023/04/27 04:52:38;;;;;;;11.63;7.38;;;3.10;99.90;;;;;;5050784;28;20139;-71
2023/04/27 04:55:04;;;;;;;11.27;8.35;;;2.40;99.90;;;;;;5051215;28;20060;-71
2023/04/27 04:57:30;;;;;;;10.25;7.50;;;2.60;99.90;;;;;;5051238;28;20088;-71
2023/04/27 04:59:56;;;;;;;9.35;8.02;;;2.70;99.90;;;;;;5052200;28;20129;-71
2023/04/27 05:02:22;;;;;;;10.27;8.35;;;3.10;99.90;;;;;;5051792;28;20165;-71
2023/04/27 05:04:50;;;;;;;8.25;7.22;;;2.80;99.90;;;;;;5052110;28;20102;-71
2023/04/27 05:07:16;;;;;;;8.38;7.03;;;2.90;99.90;;;;;;5051108;28;20060;-71
2023/04/27 05:09:42;;;;;;;10.75;7.65;;;2.90;99.90;;;;;;5050859;28;20048;-71
2023/04/27 05:12:08;;;;;;;10.55;7.55;;;3.50;99.90;;;;;;5052101;28;20041;-71
2023/04/27 05:14:34;;;;;;;8.13;6.68;;;3.10;99.90;;;;;;5052118;28;20095;-71
2023/04/27 05:17:00;;;;;;;11.60;7.75;;;3.20;99.90;;;;;;5052094;28;20127;-71
2023/04/27 05:19:30;;;;;;;10.07;7.32;;;3.00;99.90;;;;;;5052269;28;20045;-71
2023/04/27 05:21:57;;;;;;;10.65;7.93;;;3.00;99.90;;;;;;5050735;28;20056;-71
2023/04/27 05:24:23;;;;;;;9.75;7.50;;;3.00;99.90;;;;;;5051785;28;20447;-71
2023/04/27 05:26:48;;;;;;;11.90;7.80;;;3.10;99.90;;;;;;5051688;28;20056;-71
2023/04/27 05:29:14;;;;;;;10.57;6.50;;;3.10;99.90;;;;;;5052347;28;20037;-71
2023/04/27 05:31:40;;;;;;;14.15;6.68;;;3.30;99.90;;;;;;5051623;28;20049;-70
2023/04/27 05:34:08;;;;;;;12.13;7.65;;;3.40;99.90;;;;;;5051879;28;20057;-70
2023/04/27 05:36:34;;;;;;;9.55;6.47;;;3.40;99.90;;;;;;5052219;28;20159;-69
2023/04/27 05:39:01;;;;;;;9.98;7.88;;;4.10;99.90;;;;;;5051787;28;20048;-71
2023/04/27 05:41:26;;;;;;;9.27;7.50;;;3.70;99.90;;;;;;5051646;28;20049;-69
2023/04/27 05:43:52;;;;;;;7.95;6.60;;;3.80;99.90;;;;;;5050297;28;20044;-70
2023/04/27 05:46:19;;;;;;;10.48;7.07;;;4.00;99.90;;;;;;5051827;28;20052;-69
2023/04/27 05:48:45;;;;;;;9.55;6.60;;;4.00;99.90;;;;;;5051564;28;20087;-71
2023/04/27 05:51:11;;;;;;;12.00;7.07;;;4.70;99.90;;;;;;5051520;28;20041;-69
2023/04/27 05:53:37;;;;;;;9.15;6.10;;;4.20;99.90;;;;;;5051707;28;20124;-69
2023/04/27 05:56:05;;;;;;;8.93;6.13;;;4.30;99.90;;;;;;5083912;28;20057;-72
2023/04/27 05:58:32;;;;;;;9.05;6.15;;;4.40;99.90;;;;;;5050334;28;20398;-70
2023/04/27 06:00:58;;;;;;;10.30;6.13;;;4.50;99.90;;;;;;5051617;28;20144;-70
2023/04/27 06:03:24;;;;;;;8.57;5.43;;;4.60;99.90;;;;;;5051399;28;20137;-71
2023/04/27 06:05:58;;;;;;;7.05;5.85;;;4.70;99.90;;;;;;5054061;28;20045;-69
2023/04/27 06:08:24;;;;;;;7.05;5.97;;;4.80;99.90;;;;;;5055474;28;20106;-69
2023/04/27 06:10:50;;;;;;;5.93;4.95;;;4.80;99.90;;;;;;5053950;28;20482;-69
2023/04/27 06:13:17;;;;;;;8.00;5.75;;;5.00;99.90;;;;;;5054748;28;20126;-69
2023/04/27 06:15:42;;;;;;;7.18;6.03;;;5.10;99.90;;;;;;5037657;28;20041;-71
2023/04/27 06:18:08;;;;;;;8.10;5.75;;;5.20;99.90;;;;;;5054741;28;20037;-70
2023/04/27 06:20:34;;;;;;;5.88;4.32;;;5.40;99.90;;;;;;5055589;28;20045;-69
2023/04/27 06:23:00;;;;;;;8.18;5.00;;;6.50;99.90;;;;;;5055547;28;20044;-71
2023/04/27 06:25:27;;;;;;;7.82;4.95;;;5.60;99.90;;;;;;5054783;28;20131;-69
2023/04/27 06:27:54;;;;;;;6.43;4.70;;;5.70;99.90;;;;;;5054186;28;20045;-69
2023/04/27 06:30:20;;;;;;;7.97;5.25;;;5.80;99.90;;;;;;5053436;28;20053;-70
2023/04/27 06:32:45;;;;;;;6.13;5.00;;;6.00;99.90;;;;;;5053332;28;20111;-69
2023/04/27 06:35:12;;;;;;;5.75;5.15;;;6.10;99.90;;;;;;5086883;28;20120;-71
2023/04/27 06:37:38;;;;;;;8.57;5.72;;;6.20;99.90;;;;;;5055130;28;20052;-70
2023/04/27 06:40:05;;;;;;;6.82;4.60;;;6.40;99.90;;;;;;5054672;28;20406;-71
2023/04/27 06:42:31;;;;;;;6.72;3.58;;;6.60;99.90;;;;;;5054523;28;20080;-69
2023/04/27 06:44:57;;;;;;;6.75;5.22;;;6.70;99.90;;;;;;5054663;28;20063;-72
2023/04/27 06:47:23;;;;;;;6.55;4.63;;;6.90;99.90;;;;;;5054595;28;20061;-70
2023/04/27 06:49:49;;;;;;;5.22;4.03;;;7.10;99.90;;;;;;5053271;28;20053;-69
2023/04/27 06:52:15;;;;;;;6.13;3.90;;;7.30;99.90;;;;;;5054202;28;20134;-70
2023/04/27 06:54:41;;;;;;;3.78;3.45;;;7.60;99.90;;;;;;5054219;28;20127;-69
2023/04/27 06:57:07;;;;;;;3.72;2.63;;;8.50;99.90;;;;;;5054157;28;20087;-72
2023/04/27 06:59:33;;;;;;;3.08;2.78;;;10.00;99.90;;;;;;5054663;28;20037;-70
2023/04/27 07:01:59;;;;;;;2.83;2.42;;;11.20;99.90;;;;;;5053312;28;20051;-71
2023/04/27 07:04:25;;;;;;;6.53;2.33;;;12.20;99.90;;;;;;5054277;28;20051;-70
2023/04/27 07:06:50;;;;;;;3.88;2.70;;;12.80;99.90;;;;;;5054551;28;20448;-70
2023/04/27 07:09:16;;;;;;;3.75;2.72;;;13.40;99.90;;;;;;5069751;28;20543;-70
2023/04/27 07:11:42;;;;;;;5.55;2.33;;;14.20;99.90;;;;;;5053882;28;20052;-70
2023/04/27 07:14:07;;;;;;;4.20;2.45;;;14.40;94.80;;;;;;5053913;28;20044;-72
2023/04/27 07:16:33;;;;;;;2.75;2.38;;;15.00;99.90;;;;;;5053498;28;20466;-72
2023/04/27 07:18:59;;;;;;;4.75;2.17;;;15.40;99.90;;;;;;5053671;28;20187;-72
2023/04/27 07:21:25;;;;;;;3.00;2.13;;;16.00;99.90;;;;;;5052814;28;20045;-70
2023/04/27 07:23:51;;;;;;;3.33;2.47;;;16.60;99.90;;;;;;5054291;28;20049;-70
2023/04/27 07:26:17;;;;;;;3.30;2.13;;;17.40;98.80;;;;;;5036718;28;20057;-70
2023/04/27 07:28:43;;;;;;;3.28;1.85;;;17.10;96.90;;;;;;5035780;28;20044;-69
2023/04/27 07:31:10;;;;;;;3.10;2.13;;;17.00;96.60;;;;;;5053936;28;20045;-70
2023/04/27 07:33:36;;;;;;;3.60;2.25;;;17.00;93.40;;;;;;5053540;28;20065;-70
2023/04/27 07:36:02;;;;;;;4.40;2.33;;;17.20;94.70;;;;;;5053951;28;20052;-70
2023/04/27 07:38:30;;;;;;;2.88;1.70;;;17.50;91.50;;;;;;5053492;28;20075;-70
2023/04/27 07:40:57;;;;;;;2.45;1.73;;;17.80;93.30;;;;;;5053418;28;20053;-69
2023/04/27 07:43:24;;;;;;;2.30;2.10;;;18.30;91.50;;;;;;5053400;28;20041;-70
2023/04/27 07:45:50;;;;;;;2.53;1.92;;;18.20;91.50;;;;;;5053744;28;20046;-69
2023/04/27 07:48:17;;;;;;;4.25;1.92;;;18.60;91.40;;;;;;5053636;28;20073;-69
2023/04/27 07:50:42;;;;;;;2.83;1.70;;;18.70;90.50;;;;;;5053402;28;20119;-71
2023/04/27 07:53:08;;;;;;;2.00;1.80;;;18.90;90.00;;;;;;5053145;28;20080;-71
2023/04/27 07:55:34;;;;;;;2.28;1.73;;;19.00;89.20;;;;;;5052193;28;20071;-70
2023/04/27 07:58:01;;;;;;;2.88;1.95;;;19.50;88.90;;;;;;5052999;28;20536;-72
2023/04/27 08:00:26;;;;;;;3.75;1.60;;;19.50;87.00;;;;;;5052961;28;20124;-71
2023/04/27 08:02:53;;;;;;;3.97;1.80;;;19.50;83.10;;;;;;5053027;28;20508;-70
2023/04/27 08:05:19;;;;;;;1.50;1.40;;;19.60;80.00;;;;;;5035088;28;20076;-69
2023/04/27 08:07:45;;;;;;;2.08;1.58;;;19.70;83.30;;;;;;5052721;28;20049;-69
2023/04/27 08:10:12;;;;;;;2.63;1.50;;;19.70;76.90;;;;;;5052758;28;20045;-69
2023/04/27 08:12:38;;;;;;;2.88;1.40;;;20.00;74.80;;;;;;5052828;28;20049;-69
2023/04/27 08:15:07;;;;;;;2.72;1.80;;;19.80;76.00;;;;;;5053053;28;20040;-72
2023/04/27 08:17:33;;;;;;;3.50;2.17;;;19.60;73.50;;;;;;5052566;28;20044;-69
2023/04/27 08:19:59;;;;;;;2.20;2.00;;;19.60;76.90;;;;;;5051863;28;20049;-69
2023/04/27 08:22:25;;;;;;;4.07;1.98;;;20.00;77.40;;;;;;5052609;28;20072;-69
2023/04/27 08:24:50;;;;;;;2.42;1.95;;;19.80;70.00;;;;;;5051216;28;20041;-69
2023/04/27 08:27:16;;;;;;;2.75;2.30;;;19.60;73.40;;;;;;5051521;28;20044;-69
2023/04/27 08:29:46;;;;;;;4.25;2.50;;;19.60;74.20;;;;;;5052619;28;20060;-70
2023/04/27 08:32:12;;;;;;;2.42;2.17;;;19.80;69.30;;;;;;5052743;28;21133;-69
2023/04/27 08:34:38;;;;;;;2.25;2.08;;;19.80;72.40;;;;;;5051774;28;20126;-69
2023/04/27 08:37:04;;;;;;;2.15;1.95;;;20.20;74.80;;;;;;5052390;28;20092;-71
2023/04/27 08:39:30;;;;;;;2.38;2.15;;;20.10;73.90;;;;;;5051215;28;20049;-69
2023/04/27 08:41:55;;;;;;;2.60;2.40;;;20.20;73.40;;;;;;5068018;28;20055;-69
2023/04/27 08:44:21;;;;;;;3.40;1.80;;;20.60;73.30;;;;;;5052491;28;20053;-69
2023/04/27 08:46:47;;;;;;;2.00;1.80;;;20.10;70.30;;;;;;5052487;28;20049;-71
2023/04/27 08:49:13;;;;;;;2.35;1.95;;;19.60;68.50;;;;;;5051800;28;20386;-70
2023/04/27 08:51:39;;;;;;;2.85;2.10;;;20.40;71.50;;;;;;5052319;28;20087;-69
2023/04/27 08:54:04;;;;;;;2.75;2.45;;;20.50;69.30;;;;;;5052144;28;20056;-69
2023/04/27 08:56:30;;;;;;;3.05;2.22;;;20.40;65.80;;;;;;5067665;28;20098;-69
2023/04/27 08:58:59;;;;;;;3.28;2.47;;;20.30;68.40;;;;;;5052525;28;20049;-69
2023/04/27 09:01:26;;;;;;;3.42;2.15;;;20.20;68.50;;;;;;5052317;28;20051;-69
2023/04/27 09:03:56;;;;;;;3.08;2.38;;;20.30;67.80;;;;;;5051111;28;20045;-69
2023/04/27 09:06:32;;;;;;;2.90;2.55;;;20.50;63.90;;;;;;5052340;28;20049;-69
2023/04/27 09:08:59;;;;;;;2.58;2.38;;;20.70;62.70;;;;;;5052517;28;20037;-69
2023/04/27 09:11:30;;;;;;;3.53;2.50;;;20.70;64.50;;;;;;5051981;28;20128;-69
2023/04/27 09:13:57;;;;;;;4.03;2.33;;;20.80;67.10;;;;;;5052225;28;20126;-69
2023/04/27 09:16:25;;;;;;;3.20;2.60;;;21.20;66.30;;;;;;5051640;28;20045;-69
2023/04/27 09:18:51;;;;;;;3.13;2.70;;;21.00;66.50;;;;;;5051855;28;20051;-69
2023/04/27 09:21:25;;;;;;;3.60;2.55;;;20.60;64.90;;;;;;5084467;28;20053;-69
2023/04/27 09:23:51;;;;;;;2.90;2.40;;;19.90;61.20;;;;;;5050966;28;20048;-69
2023/04/27 09:26:21;;;;;;;4.20;3.03;;;19.30;62.90;;;;;;5052229;28;20147;-69
2023/04/27 09:28:49;;;;;;;2.50;2.30;;;19.20;63.60;;;;;;5051644;28;20091;-68
2023/04/27 09:31:15;;;;;;;3.83;2.75;;;18.20;61.90;;;;;;5051696;28;20421;-69
2023/04/27 09:33:43;;;;;;;6.38;2.95;;;17.90;65.30;;;;;;5052111;28;20089;-69
2023/04/27 09:36:09;;;;;;;3.42;3.00;;;17.80;65.60;;;;;;5051205;28;20064;-69
2023/04/27 09:38:35;;;;;;;3.85;3.47;;;17.70;65.40;;;;;;5052601;28;20128;-69
2023/04/27 09:41:02;;;;;;;6.35;3.42;;;18.10;66.20;;;;;;5055527;28;20083;-69
2023/04/27 09:43:29;;;;;;;3.83;3.35;;;18.20;66.50;;;;;;5055772;28;20056;-69
2023/04/27 09:45:56;;;;;;;5.57;3.70;;;18.10;65.90;;;;;;5055279;28;20498;-69
2023/04/27 09:48:24;;;;;;;5.93;3.50;;;18.50;67.50;;;;;;5054916;28;20422;-69
2023/04/27 09:50:51;;;;;;;4.15;2.83;;;18.40;65.80;;;;;;5055296;28;20048;-70
2023/04/27 09:53:29;;;;;;;4.53;3.10;;;18.40;67.50;;;;;;5021773;28;20094;-69
2023/04/27 09:56:27;;;;;;;3.88;3.28;;;18.40;65.10;;;;;;5055457;28;20462;-69
2023/04/27 09:59:30;;;;;;;4.18;2.97;;;19.20;63.50;;;;;;5055759;28;20099;-70
2023/04/27 10:01:59;;;;;;;4.43;3.10;;;19.40;61.30;;;;;;5055492;28;20051;-69
2023/04/27 10:04:49;;;;;;;7.00;4.38;;;18.90;64.30;;;;;;5054371;28;20087;-69
2023/04/27 10:07:16;;;;;;;5.47;3.83;;;18.40;65.20;;;;;;5055516;28;20532;-69
2023/04/27 10:09:44;;;;;;;8.25;4.07;;;18.00;66.70;;;;;;5054989;28;20037;-69
2023/04/27 10:12:35;;;;;;;5.75;3.88;;;18.10;66.70;;;;;;5055190;28;20052;-70
2023/04/27 10:15:16;;;;;;;4.70;3.15;;;18.30;64.00;;;;;;5055323;28;20045;-70
2023/04/27 10:17:50;;;;;;;4.45;3.47;;;18.70;61.70;;;;;;5055431;28;20037;-69
2023/04/27 10:20:16;;;;;;;4.63;3.13;;;19.00;66.00;;;;;;5054831;28;20118;-69
2023/04/27 10:22:44;;;;;;;6.28;3.80;;;19.10;66.00;;;;;;5055008;28;20134;-69
2023/04/27 10:25:17;;;;;;;4.30;3.03;;;18.70;64.50;;;;;;5055159;28;20049;-69
2023/04/27 10:27:48;;;;;;;4.95;3.58;;;18.50;64.90;;;;;;5054580;28;20498;-69
2023/04/27 10:30:17;;;;;;;4.30;3.90;;;17.80;65.10;;;;;;5054689;28;20081;-70
2023/04/27 10:32:54;;;;;;;4.13;3.50;;;17.40;65.60;;;;;;5054986;28;20107;-70
2023/04/27 10:35:22;;;;;;;4.45;3.92;;;17.00;64.50;;;;;;5054620;28;20092;-70
2023/04/27 10:37:48;;;;;;;4.57;3.95;;;16.70;66.40;;;;;;5054974;28;20506;-68
2023/04/27 10:40:16;;;;;;;4.38;3.20;;;16.40;63.80;;;;;;5054403;28;20124;-71
2023/04/27 10:42:47;;;;;;;5.20;3.83;;;16.60;67.80;;;;;;5054390;28;20053;-70
2023/04/27 10:45:12;;;;;;;7.07;3.63;;;16.70;68.30;;;;;;5054334;28;20120;-70
2023/04/27 10:47:39;;;;;;;5.05;3.55;;;17.00;67.90;;;;;;5053209;28;20088;-68
2023/04/27 10:50:07;;;;;;;7.18;3.70;;;16.90;68.00;;;;;;5053196;28;20526;-68
2023/04/27 10:52:33;;;;;;;4.05;3.58;;;17.10;69.30;;;;;;5054826;28;20060;-68
2023/04/27 10:55:11;;;;;;;8.68;4.05;;;17.00;69.20;;;;;;5054026;28;20119;-68
2023/04/27 10:57:45;;;;;;;8.02;3.85;;;16.80;66.80;;;;;;5054700;28;20061;-68
2023/04/27 11:00:13;;;;;;;6.43;4.47;;;16.50;67.30;;;;;;5086614;28;20057;-70
2023/04/27 11:02:38;;;;;;;4.63;3.95;;;16.00;67.10;;;;;;5053759;28;20569;-70
2023/04/27 11:05:18;;;;;;;5.47;3.78;;;15.70;67.70;;;;;;5054255;28;20087;-71
2023/04/27 11:07:45;;;;;;;4.65;3.63;;;15.60;67.10;;;;;;5054327;28;20122;-70
2023/04/27 11:10:15;;;;;;;3.35;2.97;;;15.50;67.80;;;;;;5053073;28;20041;-70
2023/04/27 11:12:41;;;;;;;4.95;3.28;;;15.20;69.10;;;;;;5053796;28;20084;-70
2023/04/27 11:15:08;;;;;;;6.55;3.70;;;15.00;69.10;;;;;;5053869;28;20056;-70
2023/04/27 11:17:33;;;;;;;3.90;3.50;;;14.80;69.50;;;;;;5053726;28;20049;-70
2023/04/27 11:19:59;;;;;;;4.20;3.38;;;14.70;71.60;;;;;;5053784;28;20070;-70
2023/04/27 11:22:25;;;;;;;4.47;3.83;;;14.50;70.60;;;;;;5053712;28;20440;-70
2023/04/27 11:24:52;;;;;;;6.28;3.75;;;14.50;71.20;;;;;;5054154;28;20052;-70
2023/04/27 11:27:20;;;;;;;4.78;4.03;;;14.50;71.60;;;;;;5052788;28;20167;-70
2023/04/27 11:29:46;;;;;;;7.43;4.07;;;14.40;70.10;;;;;;5053535;28;20071;-70
2023/04/27 11:32:22;;;;;;;4.45;3.72;;;14.40;70.90;;;;;;5053774;28;20045;-70
2023/04/27 11:34:52;;;;;;;5.60;4.35;;;14.40;73.00;;;;;;5053082;28;20475;-70
2023/04/27 11:37:26;;;;;;;7.97;4.13;;;14.20;70.80;;;;;;5053437;28;20520;-70
2023/04/27 11:39:53;;;;;;;7.43;4.30;;;14.10;69.20;;;;;;5086066;28;20055;-70
2023/04/27 11:42:27;;;;;;;5.10;3.55;;;14.20;73.40;;;;;;5053455;28;20051;-70
2023/04/27 11:44:53;;;;;;;5.45;4.30;;;14.20;72.10;;;;;;5052637;28;20115;-70
2023/04/27 11:47:20;;;;;;;6.55;4.13;;;14.30;72.60;;;;;;5053213;28;20482;-70
2023/04/27 11:49:50;;;;;;;7.13;3.95;;;14.50;73.20;;;;;;5052922;28;20075;-70
2023/04/27 11:52:16;;;;;;;4.60;3.83;;;14.50;71.90;;;;;;5053026;28;20071;-70
2023/04/27 11:54:55;;;;;;;5.63;3.50;;;14.70;72.10;;;;;;5053574;28;20051;-70
2023/04/27 11:57:28;;;;;;;4.22;3.92;;;14.50;68.10;;;;;;5053381;28;20067;-70
2023/04/27 11:59:55;;;;;;;6.90;3.97;;;15.10;69.90;;;;;;5053480;28;20098;-70
2023/04/27 12:02:22;;;;;;;8.65;5.10;;;14.70;72.00;;;;;;5035514;28;20061;-70
2023/04/27 12:04:50;;;;;;;4.72;4.30;;;15.00;72.10;;;;;;5036165;28;20091;-71
2023/04/27 12:07:17;;;;;;;7.00;4.20;;;15.00;69.20;;;;;;5085617;28;20045;-70
2023/04/27 12:09:43;;;;;;;5.43;4.40;;;14.70;70.90;;;;;;5052915;28;20033;-70
2023/04/27 12:12:10;;;;;;;6.75;4.20;;;14.80;71.90;;;;;;5053368;28;20053;-70
2023/04/27 12:14:35;;;;;;;5.05;4.13;;;14.90;73.40;;;;;;5052848;28;20056;-70
2023/04/27 12:17:01;;;;;;;8.73;4.18;;;14.90;71.80;;;;;;5053258;28;20045;-70
2023/04/27 12:19:27;;;;;;;5.18;4.18;;;14.80;72.30;;;;;;5052744;28;20037;-70
2023/04/27 12:21:54;;;;;;;5.35;4.22;;;14.70;71.50;;;;;;5052729;28;20158;-70
2023/04/27 12:24:20;;;;;;;8.02;4.00;;;14.60;73.30;;;;;;5052798;28;20049;-70
2023/04/27 12:26:47;;;;;;;5.28;4.35;;;14.50;75.00;;;;;;5052469;28;20057;-70
2023/04/27 12:29:13;;;;;;;6.72;3.97;;;14.40;74.80;;;;;;5052678;28;20041;-70
2023/04/27 12:31:38;;;;;;;6.47;4.28;;;14.30;74.60;;;;;;5051869;28;20052;-71
2023/04/27 12:34:04;;;;;;;5.43;3.95;;;14.20;74.50;;;;;;5053524;28;20060;-71
2023/04/27 12:36:30;;;;;;;6.13;4.43;;;14.10;75.20;;;;;;5052258;28;20418;-68
2023/04/27 12:39:14;;;;;;;4.88;4.40;;;14.00;74.80;;;;;;5051495;28;20419;-70
2023/04/27 12:41:42;;;;;;;8.93;4.50;;;13.90;71.90;;;;;;5052167;28;20186;-70
2023/04/27 12:44:08;;;;;;;6.72;5.50;;;13.80;74.30;;;;;;5052467;28;20532;-71
2023/04/27 12:46:33;;;;;;;6.07;4.32;;;13.60;74.50;;;;;;5085476;28;20076;-68
2023/04/27 12:49:00;;;;;;;7.15;4.75;;;13.60;76.30;;;;;;5051278;28;20037;-70